Portada
METAR-TAF:

METAR-TAF

Aeroports :

Nanquín, Xina

latitud: 32-00N, longitud: 118-48E, altitud: 12 m

Observació

L'informe es va fer fa 44 minuts, a les 20:00 UTC
Vent 4 kt del Nord-Est, variant entre Nord/Nord-Est i Est
Temperatura 23°C
Humitat 73%
Pressió 1018 hPa
Visibilitat 10 km o més
sense núvols per sota de 1500 mi sense presència de cumulonimbus.

METAR: ZSNJ 172000Z 05002MPS 020V080 CAVOK 23/18 Q1018 NOSIG

Hora: 04:44 (20:44 UTC)

Pronòstic

L'informe es va fer fa 5 hores i 43 minuts, a les 15:01 UTC
Pronòstic vàlid del 17 a les 18 UTC al 18 a les 18 UTC
Vent 8 kt del Nord-Est
Visibilitat: 3000 m
Núvols disperses a una alçada de 3300 ft
calitja

TAF: ZSNJ 171501Z 1718/1818 05004MPS 3000 HZ SCT033 TX29/1807Z TN20/1721Z

Observacions i pronòstics meteorològics de més de 4000 aeroports (METAR i TAF).

Les estacions disponibles són els punts grocs i vermells al mapa.

Posi el ratolí al punt desitjat per veure el nom de l'estació.

Feu clic per veure les observacions i els pronòstics meteorològics.

Per canviar el mapa: feu clic els botons verds amb una creu de color negre per apropar; al botó verd amb un guió per allunyar la imatge; o en les fletxes verdes per a mapes adjacents.


METAR-TAF: